createdAt,value
2019-05-11T00:04:55.259Z,19.93
2019-05-11T00:09:58.800Z,19.92
2019-05-11T00:15:02.079Z,19.92
2019-05-11T00:20:06.854Z,19.89
2019-05-11T00:25:10.226Z,19.88
2019-05-11T00:30:13.978Z,19.89
2019-05-11T00:35:17.378Z,19.87
2019-05-11T00:40:20.671Z,19.88
2019-05-11T00:45:24.088Z,19.86
2019-05-11T00:50:38.855Z,19.85
2019-05-11T00:55:32.643Z,19.85
2019-05-11T01:00:36.057Z,19.84
2019-05-11T01:05:39.481Z,19.83
2019-05-11T01:10:42.932Z,19.83
2019-05-11T01:15:46.297Z,19.83
2019-05-11T01:20:49.699Z,19.84
2019-05-11T01:25:53.116Z,19.84
2019-05-11T01:30:56.528Z,19.82
2019-05-11T01:35:59.938Z,19.82
2019-05-11T01:41:03.349Z,19.80
2019-05-11T01:46:06.678Z,19.79
2019-05-11T01:51:10.072Z,19.79
2019-05-11T01:56:13.491Z,19.80
2019-05-11T02:01:16.999Z,19.80
2019-05-11T02:06:20.409Z,19.78
2019-05-11T02:11:23.820Z,19.78
2019-05-11T02:16:27.239Z,19.77
2019-05-11T02:21:30.644Z,19.79
2019-05-11T02:26:34.049Z,19.77
2019-05-11T02:31:37.424Z,19.78
2019-05-11T02:36:40.779Z,19.75
2019-05-11T02:41:44.183Z,19.74
2019-05-11T02:46:47.597Z,19.75
2019-05-11T02:51:51.017Z,19.74
2019-05-11T02:56:54.416Z,19.72
2019-05-11T03:01:57.833Z,19.75
2019-05-11T03:07:01.170Z,19.72
2019-05-11T03:12:04.663Z,19.73
2019-05-11T03:17:15.751Z,19.73
2019-05-11T03:22:19.079Z,19.71
2019-05-11T03:27:22.478Z,19.69
2019-05-11T03:32:25.896Z,19.71
2019-05-11T03:37:29.288Z,19.69
2019-05-11T03:42:32.710Z,19.70
2019-05-11T03:47:36.010Z,19.70
2019-05-11T03:52:39.315Z,19.67
2019-05-11T03:57:42.632Z,19.69
2019-05-11T04:02:45.954Z,19.69
2019-05-11T04:07:49.353Z,19.67
2019-05-11T04:12:52.766Z,19.67
2019-05-11T04:17:56.172Z,19.66
2019-05-11T04:22:59.589Z,19.68
2019-05-11T04:28:03.007Z,19.69
2019-05-11T04:33:06.493Z,19.70
2019-05-11T04:38:09.927Z,19.71
2019-05-11T04:43:13.233Z,19.72
2019-05-11T04:48:16.646Z,19.73
2019-05-11T04:53:20.058Z,19.71
2019-05-11T04:58:23.568Z,19.73
2019-05-11T05:03:39.830Z,19.71
2019-05-11T05:08:32.865Z,19.72
2019-05-11T05:13:36.261Z,19.72
2019-05-11T05:18:39.676Z,19.73
2019-05-11T05:23:43.057Z,19.69
2019-05-11T05:28:46.399Z,19.71
2019-05-11T05:33:49.813Z,19.74
2019-05-11T05:38:53.112Z,19.73
2019-05-11T05:43:56.529Z,19.74
2019-05-11T05:48:59.924Z,19.75
2019-05-11T05:54:03.352Z,19.76
2019-05-11T05:59:06.767Z,19.76
2019-05-11T06:04:10.169Z,19.72
2019-05-11T06:09:13.586Z,19.73
2019-05-11T06:14:16.998Z,19.71
2019-05-11T06:19:20.410Z,19.74
2019-05-11T06:24:23.749Z,19.77
2019-05-11T06:29:27.130Z,19.81
2019-05-11T06:34:30.542Z,19.84
2019-05-11T06:39:33.854Z,19.88
2019-05-11T06:44:37.261Z,19.88
2019-05-11T06:49:40.572Z,19.91
2019-05-11T06:54:43.978Z,19.93
2019-05-11T06:59:47.395Z,19.98
2019-05-11T07:04:50.733Z,20.03
2019-05-11T07:09:54.119Z,20.02
2019-05-11T07:14:57.531Z,20.07
2019-05-11T07:20:00.958Z,20.13
2019-05-11T07:25:07.740Z,20.20
2019-05-11T07:30:11.139Z,20.20
2019-05-11T07:35:14.552Z,20.25
2019-05-11T07:40:18.719Z,20.23
2019-05-11T07:45:22.351Z,20.24
2019-05-11T07:50:28.159Z,20.26
2019-05-11T07:55:30.864Z,20.35
2019-05-11T08:00:36.506Z,20.52
2019-05-11T08:05:39.428Z,20.50
2019-05-11T08:17:15.442Z,20.50
2019-05-11T08:22:22.720Z,19.96
2019-05-11T08:27:24.013Z,19.95
2019-05-11T08:32:28.665Z,19.96
2019-05-11T08:37:32.260Z,20.12
2019-05-11T08:42:37.893Z,20.16
2019-05-11T08:47:40.772Z,20.07
2019-05-11T08:52:44.136Z,20.05
2019-05-11T09:05:12.787Z,20.22
2019-05-11T09:10:18.353Z,20.22
2019-05-11T09:15:33.666Z,20.13
2019-05-11T09:20:28.471Z,20.06
2019-05-11T09:25:31.589Z,19.99
2019-05-11T09:30:34.908Z,20.03
2019-05-11T09:35:47.665Z,20.08
2019-05-11T09:40:43.407Z,20.20
2019-05-11T09:45:49.304Z,20.22
2019-05-11T09:50:52.660Z,19.97
2019-05-11T09:55:58.512Z,19.92
2019-05-11T10:01:01.162Z,19.88
2019-05-11T10:06:04.524Z,20.04
2019-05-11T10:11:08.490Z,20.06
2019-05-11T10:16:11.858Z,20.17
2019-05-11T10:21:15.320Z,20.02
2019-05-11T10:26:19.049Z,19.91
2019-05-11T10:31:22.450Z,19.88
2019-05-11T10:36:27.864Z,20.01
2019-05-11T10:41:30.845Z,19.97
2019-05-11T10:46:34.169Z,20.26
2019-05-11T10:51:38.281Z,20.37
2019-05-11T10:56:41.818Z,20.45
2019-05-11T11:01:45.151Z,20.56
2019-05-11T11:06:48.711Z,21.68
2019-05-11T11:11:52.122Z,20.87
2019-05-11T11:16:55.467Z,20.82
2019-05-11T11:22:17.706Z,21.53
2019-05-11T11:27:03.891Z,21.41
2019-05-11T11:32:08.059Z,21.00
2019-05-11T11:37:11.457Z,21.39
2019-05-11T11:42:14.797Z,21.51
2019-05-11T11:47:21.317Z,21.24
2019-05-11T11:52:23.146Z,20.94
2019-05-11T11:57:28.265Z,20.82
2019-05-11T12:02:31.537Z,20.31
2019-05-11T12:07:34.900Z,20.81
2019-05-11T12:12:38.747Z,20.92
2019-05-11T12:17:42.366Z,20.80
2019-05-11T12:22:47.621Z,20.53
2019-05-11T12:27:50.790Z,20.54
2019-05-11T12:32:54.124Z,20.57
2019-05-11T12:37:58.719Z,20.61
2019-05-11T12:43:02.217Z,20.57
2019-05-11T12:48:05.577Z,20.53
2019-05-11T12:53:08.936Z,20.51
2019-05-11T12:58:12.287Z,20.60
2019-05-11T13:03:15.616Z,20.54
2019-05-11T13:08:18.932Z,20.63
2019-05-11T13:13:22.524Z,20.57
2019-05-11T13:18:27.874Z,20.44
2019-05-11T13:23:30.955Z,20.51
2019-05-11T13:28:34.333Z,20.54
2019-05-11T13:33:38.446Z,20.54
2019-05-11T13:38:41.881Z,20.49
2019-05-11T13:43:45.252Z,20.40
2019-05-11T13:48:48.606Z,20.46
2019-05-11T13:53:51.963Z,20.47
2019-05-11T13:58:57.913Z,20.59
2019-05-11T14:04:01.283Z,20.55
2019-05-11T14:09:07.815Z,20.54
2019-05-11T14:14:11.215Z,20.47
2019-05-11T14:19:14.563Z,20.41
2019-05-11T14:24:18.502Z,20.41
2019-05-11T14:29:22.022Z,20.36
2019-05-11T14:34:25.416Z,20.36
2019-05-11T14:39:28.824Z,20.35
2019-05-11T14:44:32.138Z,20.31
2019-05-11T14:49:37.703Z,20.37
2019-05-11T14:54:40.584Z,20.21
2019-05-11T14:59:43.934Z,20.21
2019-05-11T15:04:48.416Z,20.21
2019-05-11T15:09:51.768Z,20.14
2019-05-11T15:14:55.093Z,20.01
2019-05-11T15:19:58.413Z,20.18
2019-05-11T15:25:01.738Z,20.15
2019-05-11T15:30:08.021Z,20.14
2019-05-11T15:35:11.157Z,20.10
2019-05-11T15:40:14.742Z,20.12
2019-05-11T15:45:18.806Z,20.05
2019-05-11T15:50:22.183Z,20.12
2019-05-11T15:55:27.641Z,20.08
2019-05-11T16:00:30.601Z,20.07
2019-05-11T16:05:33.973Z,20.03
2019-05-11T16:10:38.406Z,19.89
2019-05-11T16:15:41.918Z,20.09
2019-05-11T16:20:45.218Z,20.04
2019-05-11T16:25:49.006Z,20.04
2019-05-11T16:30:52.336Z,19.87
2019-05-11T16:35:58.019Z,19.99
2019-05-11T16:41:00.697Z,19.98
2019-05-11T16:46:03.994Z,20.01
2019-05-11T16:51:08.600Z,19.99
2019-05-11T16:56:12.211Z,19.85
2019-05-11T17:01:15.515Z,19.77
2019-05-11T17:06:19.714Z,19.81
2019-05-11T17:11:23.193Z,19.94
2019-05-11T17:16:28.488Z,19.97
2019-05-11T17:21:56.326Z,19.99
2019-05-11T17:26:59.678Z,19.72
2019-05-11T17:32:03.068Z,19.57
2019-05-11T17:37:08.828Z,19.41
2019-05-11T17:42:11.484Z,19.66
2019-05-11T17:47:14.807Z,19.71
2019-05-11T17:52:18.950Z,19.82
2019-05-11T17:57:23.033Z,19.79
2019-05-11T18:02:28.748Z,19.80
2019-05-11T18:07:31.478Z,19.77
2019-05-11T18:12:34.903Z,19.90
2019-05-11T18:17:38.216Z,19.94
2019-05-11T18:22:41.525Z,19.86
2019-05-11T18:27:44.832Z,19.91
2019-05-11T18:32:49.044Z,19.91
2019-05-11T18:37:52.730Z,19.94
2019-05-11T18:42:57.840Z,20.05
2019-05-11T18:48:01.298Z,19.94
2019-05-11T18:53:04.655Z,20.04
2019-05-11T18:58:08.002Z,19.85
2019-05-11T19:03:11.332Z,20.05
2019-05-11T19:08:14.651Z,19.97
2019-05-11T19:13:17.974Z,20.01
2019-05-11T19:18:21.310Z,19.96
2019-05-11T19:23:24.621Z,19.85
2019-05-11T19:28:28.279Z,19.76
2019-05-11T19:33:31.642Z,19.72
2019-05-11T19:38:35.048Z,19.67
2019-05-11T19:43:38.449Z,19.65
2019-05-11T19:48:41.782Z,19.71
2019-05-11T19:53:45.119Z,19.62
2019-05-11T19:58:48.625Z,19.62
2019-05-11T20:03:51.965Z,19.55
2019-05-11T20:08:55.304Z,19.56
2019-05-11T20:13:59.087Z,19.55
2019-05-11T20:19:02.480Z,19.48
2019-05-11T20:24:08.335Z,19.52
2019-05-11T20:29:10.968Z,19.52
2019-05-11T20:34:14.318Z,19.46
2019-05-11T20:39:17.989Z,19.38
2019-05-11T20:44:21.381Z,19.38
2019-05-11T20:49:24.772Z,19.38
2019-05-11T20:54:28.272Z,19.38
2019-05-11T20:59:31.576Z,19.34
2019-05-11T21:04:34.860Z,19.35
2019-05-11T21:09:38.152Z,19.32
2019-05-11T21:14:42.130Z,19.42
2019-05-11T21:19:47.769Z,19.45
2019-05-11T21:24:50.516Z,19.41
2019-05-11T21:29:53.868Z,19.43
2019-05-11T21:34:58.417Z,19.43
2019-05-11T21:40:02.185Z,19.42
2019-05-11T21:45:08.403Z,19.41
2019-05-11T21:50:11.883Z,19.37
2019-05-11T21:55:15.224Z,19.40
2019-05-11T22:00:18.956Z,19.36
2019-05-11T22:05:22.381Z,19.35
2019-05-11T22:10:28.099Z,19.33
2019-05-11T22:15:31.074Z,19.33
2019-05-11T22:20:34.395Z,19.30
2019-05-11T22:25:38.345Z,19.30
2019-05-11T22:30:41.761Z,19.30
2019-05-11T22:35:45.061Z,19.29
2019-05-11T22:40:48.821Z,19.31
2019-05-11T22:45:52.178Z,19.30
2019-05-11T22:50:55.495Z,19.29
2019-05-11T22:55:58.794Z,19.27
2019-05-11T23:01:02.087Z,19.25
2019-05-11T23:06:05.401Z,19.24
2019-05-11T23:11:10.564Z,19.24
2019-05-11T23:16:13.741Z,19.24
2019-05-11T23:21:17.059Z,19.24
2019-05-11T23:26:20.356Z,19.24
2019-05-11T23:31:23.736Z,19.23
2019-05-11T23:36:27.972Z,19.22
2019-05-11T23:41:31.619Z,19.23
2019-05-11T23:46:34.944Z,19.24
2019-05-11T23:51:38.833Z,19.24
2019-05-11T23:56:42.195Z,19.23
